METAR Data
IDs: Format: Raw Decoded Include TAF

Data at: 0211 UTC 20 Jan 2022

KGMJ 200155Z AUTO 02014G22KT 10SM SCT050 M03/M12 A3041 RMK AO2